Time,TemperatureF,DewpointF,PressureIn,WindDirection,WindDirectionDegrees,WindSpeedMPH,WindSpeedGustMPH,Humidity,HourlyPrecipIn,Conditions,Clouds,dailyrainin,SoftwareType,DateUTC
2013-06-20 00:00:00,79.0,-99.9,-100.00,North,-999,4.0,6.0,13,-99.99,,,-99.99,,2013-06-20 06:00:00,
2013-06-20 00:34:00,79.0,-99.9,-100.00,North,-999,4.0,6.0,13,-99.99,,,-99.99,,2013-06-20 06:34:00,
2013-06-20 00:43:00,79.0,-99.9,-100.00,North,-999,4.0,6.0,13,-99.99,,,-99.99,,2013-06-20 06:43:00,
2013-06-20 00:53:00,79.0,-99.9,-100.00,North,-999,4.0,6.0,13,-99.99,,,-99.99,,2013-06-20 06:53:00,
2013-06-20 01:00:00,82.0,-99.9,-100.00,North,-999,3.0,10.0,12,-99.99,,,-99.99,,2013-06-20 07:00:00,
2013-06-20 01:34:00,82.0,-99.9,-100.00,North,-999,3.0,10.0,12,-99.99,,,-99.99,,2013-06-20 07:34:00,
2013-06-20 01:44:00,82.0,-99.9,-100.00,North,-999,3.0,10.0,12,-99.99,,,-99.99,,2013-06-20 07:44:00,
2013-06-20 01:53:00,82.0,-99.9,-100.00,North,-999,3.0,10.0,12,-99.99,,,-99.99,,2013-06-20 07:53:00,
2013-06-20 02:00:00,82.0,-99.9,-100.00,North,-999,9.0,15.0,27,-99.99,,,-99.99,,2013-06-20 08:00:00,
2013-06-20 02:34:00,82.0,-99.9,-100.00,North,-999,9.0,15.0,27,-99.99,,,-99.99,,2013-06-20 08:34:00,
2013-06-20 02:43:00,82.0,-99.9,-100.00,North,-999,9.0,15.0,27,-99.99,,,-99.99,,2013-06-20 08:43:00,
2013-06-20 02:53:00,82.0,-99.9,-100.00,North,-999,9.0,15.0,27,-99.99,,,-99.99,,2013-06-20 08:53:00,
2013-06-20 03:00:00,-999.0,-99.9,-100.00,North,-999,8.0,13.0,31,-99.99,,,-99.99,,2013-06-20 09:00:00,
2013-06-20 03:34:00,-999.0,-99.9,-100.00,North,-999,8.0,13.0,31,-99.99,,,-99.99,,2013-06-20 09:34:00,
2013-06-20 03:43:00,-999.0,-99.9,-100.00,North,-999,8.0,13.0,31,-99.99,,,-99.99,,2013-06-20 09:43:00,
2013-06-20 03:52:00,-999.0,-99.9,-100.00,North,-999,8.0,13.0,31,-99.99,,,-99.99,,2013-06-20 09:52:00,
2013-06-20 04:00:00,78.0,-99.9,-100.00,North,-999,7.0,11.0,33,-99.99,,,-99.99,,2013-06-20 10:00:00,
2013-06-20 04:34:00,78.0,-99.9,-100.00,North,-999,7.0,11.0,33,-99.99,,,-99.99,,2013-06-20 10:34:00,
2013-06-20 04:44:00,78.0,-99.9,-100.00,North,-999,7.0,11.0,33,-99.99,,,-99.99,,2013-06-20 10:44:00,
2013-06-20 04:53:00,78.0,-99.9,-100.00,North,-999,7.0,11.0,33,-99.99,,,-99.99,,2013-06-20 10:53:00,
2013-06-20 05:00:00,76.0,-99.9,-100.00,North,-999,7.0,10.0,34,-99.99,,,-99.99,,2013-06-20 11:00:00,
2013-06-20 05:34:00,76.0,-99.9,-100.00,North,-999,7.0,10.0,34,-99.99,,,-99.99,,2013-06-20 11:34:00,
2013-06-20 05:43:00,76.0,-99.9,-100.00,North,-999,7.0,10.0,34,-99.99,,,-99.99,,2013-06-20 11:43:00,
2013-06-20 05:53:00,76.0,-99.9,-100.00,North,-999,7.0,10.0,34,-99.99,,,-99.99,,2013-06-20 11:53:00,
2013-06-20 06:00:00,78.0,-99.9,-100.00,North,-999,7.0,13.0,32,-99.99,,,-99.99,,2013-06-20 12:00:00,
2013-06-20 06:22:00,-999.0,-99.9,-100.00,North,-999,7.0,13.0,32,-99.99,,,-99.99,,2013-06-20 12:22:00,
2013-06-20 06:34:00,78.0,-99.9,-100.00,North,-999,7.0,13.0,32,-99.99,,,-99.99,,2013-06-20 12:34:00,
2013-06-20 06:43:00,78.0,-99.9,-100.00,North,-999,7.0,13.0,32,-99.99,,,-99.99,,2013-06-20 12:43:00,
2013-06-20 06:53:00,78.0,-99.9,-100.00,North,-999,7.0,13.0,32,-99.99,,,-99.99,,2013-06-20 12:53:00,
2013-06-20 07:00:00,77.0,-99.9,-100.00,North,-999,6.0,11.0,33,-99.99,,,-99.99,,2013-06-20 13:00:00,
2013-06-20 07:33:00,77.0,-99.9,-100.00,North,-999,6.0,11.0,33,-99.99,,,-99.99,,2013-06-20 13:33:00,
2013-06-20 07:43:00,77.0,-99.9,-100.00,North,-999,6.0,11.0,33,-99.99,,,-99.99,,2013-06-20 13:43:00,
2013-06-20 07:53:00,77.0,-99.9,-100.00,North,-999,6.0,11.0,33,-99.99,,,-99.99,,2013-06-20 13:53:00,
2013-06-20 08:00:00,-999.0,-99.9,-100.00,North,-999,5.0,10.0,28,-99.99,,,-99.99,,2013-06-20 14:00:00,
2013-06-20 08:33:00,-999.0,-99.9,-100.00,North,-999,5.0,10.0,28,-99.99,,,-99.99,,2013-06-20 14:33:00,
2013-06-20 08:42:00,-999.0,-99.9,-100.00,North,-999,5.0,10.0,28,-99.99,,,-99.99,,2013-06-20 14:42:00,
2013-06-20 08:53:00,-999.0,-99.9,-100.00,North,-999,5.0,10.0,28,-99.99,,,-99.99,,2013-06-20 14:53:00,
2013-06-20 09:00:00,86.0,-99.9,-100.00,North,-999,8.0,12.0,21,-99.99,,,-99.99,,2013-06-20 15:00:00,
2013-06-20 09:34:00,86.0,-99.9,-100.00,North,-999,8.0,12.0,21,-99.99,,,-99.99,,2013-06-20 15:34:00,
2013-06-20 09:43:00,86.0,-99.9,-100.00,North,-999,8.0,12.0,21,-99.99,,,-99.99,,2013-06-20 15:43:00,
2013-06-20 09:53:00,86.0,-99.9,-100.00,North,-999,8.0,12.0,21,-99.99,,,-99.99,,2013-06-20 15:53:00,
2013-06-20 10:00:00,88.0,-99.9,-100.00,North,-999,7.0,13.0,15,-99.99,,,-99.99,,2013-06-20 16:00:00,
2013-06-20 10:33:00,88.0,-99.9,-100.00,North,-999,7.0,13.0,15,-99.99,,,-99.99,,2013-06-20 16:33:00,
2013-06-20 10:43:00,88.0,-99.9,-100.00,North,-999,7.0,13.0,15,-99.99,,,-99.99,,2013-06-20 16:43:00,
2013-06-20 10:53:00,88.0,-99.9,-100.00,North,-999,7.0,13.0,15,-99.99,,,-99.99,,2013-06-20 16:53:00,
2013-06-20 11:00:00,90.0,-99.9,-100.00,North,-999,6.0,13.0,8,-99.99,,,-99.99,,2013-06-20 17:00:00,
2013-06-20 11:33:00,90.0,-99.9,-100.00,North,-999,6.0,13.0,8,-99.99,,,-99.99,,2013-06-20 17:33:00,
2013-06-20 11:43:00,90.0,-99.9,-100.00,North,-999,6.0,13.0,8,-99.99,,,-99.99,,2013-06-20 17:43:00,
2013-06-20 11:53:00,90.0,-99.9,-100.00,North,-999,6.0,13.0,8,-99.99,,,-99.99,,2013-06-20 17:53:00,
2013-06-20 12:00:00,93.0,-99.9,-100.00,North,-999,7.0,17.0,11,-99.99,,,-99.99,,2013-06-20 18:00:00,
2013-06-20 12:34:00,93.0,-99.9,-100.00,North,-999,7.0,17.0,11,-99.99,,,-99.99,,2013-06-20 18:34:00,
2013-06-20 12:43:00,93.0,-99.9,-100.00,North,-999,7.0,17.0,11,-99.99,,,-99.99,,2013-06-20 18:43:00,
2013-06-20 12:53:00,93.0,-99.9,-100.00,North,-999,7.0,17.0,11,-99.99,,,-99.99,,2013-06-20 18:53:00,
2013-06-20 13:00:00,96.0,-99.9,-100.00,North,-999,9.0,16.0,9,-99.99,,,-99.99,,2013-06-20 19:00:00,
2013-06-20 13:34:00,96.0,-99.9,-100.00,North,-999,9.0,16.0,9,-99.99,,,-99.99,,2013-06-20 19:34:00,
2013-06-20 13:44:00,96.0,-99.9,-100.00,North,-999,9.0,16.0,9,-99.99,,,-99.99,,2013-06-20 19:44:00,
2013-06-20 13:53:00,96.0,-99.9,-100.00,North,-999,9.0,16.0,9,-99.99,,,-99.99,,2013-06-20 19:53:00,
2013-06-20 14:00:00,96.0,-99.9,-100.00,North,-999,11.0,24.0,8,-99.99,,,-99.99,,2013-06-20 20:00:00,
2013-06-20 14:43:00,96.0,-99.9,-100.00,North,-999,11.0,24.0,8,-99.99,,,-99.99,,2013-06-20 20:43:00,
2013-06-20 14:53:00,96.0,-99.9,-100.00,North,-999,11.0,24.0,8,-99.99,,,-99.99,,2013-06-20 20:53:00,